<?xml version="1.0"?>
<gpx xmlns="http://www.topografix.com/GPX/1/1" version="1.1" creator="afstandmeten.nl" xmlns:xsi="http://www.w3.org/2001/XMLSchema-instance" xsi:schemaLocation="http://www.topografix.com/GPX/1/1 http://www.topografix.com/GPX/1/1/gpx.xsd">
  <trk>
    <name>Omleiding WMD waterwingebied</name>
    <desc/>
    <trkseg>
      <trkpt lat="52.7836674" lon="6.8909898">
        <ele>0.00000</ele>
        <time>2026-04-23T00:00:00Z</time>
      </trkpt>
      <trkpt lat="52.783772" lon="6.891047">
        <ele>0.00000</ele>
        <time>2026-04-23T00:00:32Z</time>
      </trkpt>
      <trkpt lat="52.7842" lon="6.891048">
        <ele>0.00000</ele>
        <time>2026-04-23T00:02:34Z</time>
      </trkpt>
      <trkpt lat="52.7842" lon="6.891048">
        <ele>0.00000</ele>
        <time>2026-04-23T00:02:34Z</time>
      </trkpt>
      <trkpt lat="52.784377" lon="6.891058">
        <ele>0.00000</ele>
        <time>2026-04-23T00:03:25Z</time>
      </trkpt>
      <trkpt lat="52.784374" lon="6.890797">
        <ele>0.00000</ele>
        <time>2026-04-23T00:04:10Z</time>
      </trkpt>
      <trkpt lat="52.784374" lon="6.890797">
        <ele>0.00000</ele>
        <time>2026-04-23T00:04:10Z</time>
      </trkpt>
      <trkpt lat="52.784356" lon="6.890543">
        <ele>0.00000</ele>
        <time>2026-04-23T00:04:54Z</time>
      </trkpt>
      <trkpt lat="52.784445" lon="6.890226">
        <ele>0.00000</ele>
        <time>2026-04-23T00:05:55Z</time>
      </trkpt>
      <trkpt lat="52.784445" lon="6.890226">
        <ele>0.00000</ele>
        <time>2026-04-23T00:05:55Z</time>
      </trkpt>
      <trkpt lat="52.784469" lon="6.890139">
        <ele>0.00000</ele>
        <time>2026-04-23T00:06:11Z</time>
      </trkpt>
      <trkpt lat="52.784454" lon="6.890057">
        <ele>0.00000</ele>
        <time>2026-04-23T00:06:26Z</time>
      </trkpt>
      <trkpt lat="52.784483" lon="6.890018">
        <ele>0.00000</ele>
        <time>2026-04-23T00:06:37Z</time>
      </trkpt>
      <trkpt lat="52.78456" lon="6.890071">
        <ele>0.00000</ele>
        <time>2026-04-23T00:07:01Z</time>
      </trkpt>
      <trkpt lat="52.785064" lon="6.890102">
        <ele>0.00000</ele>
        <time>2026-04-23T00:09:25Z</time>
      </trkpt>
      <trkpt lat="52.785064" lon="6.890102">
        <ele>0.00000</ele>
        <time>2026-04-23T00:09:25Z</time>
      </trkpt>
      <trkpt lat="52.785166" lon="6.890148">
        <ele>0.00000</ele>
        <time>2026-04-23T00:09:55Z</time>
      </trkpt>
      <trkpt lat="52.785251" lon="6.890029">
        <ele>0.00000</ele>
        <time>2026-04-23T00:10:27Z</time>
      </trkpt>
      <trkpt lat="52.785507" lon="6.890032">
        <ele>0.00000</ele>
        <time>2026-04-23T00:11:40Z</time>
      </trkpt>
      <trkpt lat="52.785774" lon="6.890212">
        <ele>0.00000</ele>
        <time>2026-04-23T00:13:03Z</time>
      </trkpt>
      <trkpt lat="52.785774" lon="6.890212">
        <ele>0.00000</ele>
        <time>2026-04-23T00:13:03Z</time>
      </trkpt>
      <trkpt lat="52.785827" lon="6.890438">
        <ele>0.00000</ele>
        <time>2026-04-23T00:13:45Z</time>
      </trkpt>
      <trkpt lat="52.785953" lon="6.890443">
        <ele>0.00000</ele>
        <time>2026-04-23T00:14:21Z</time>
      </trkpt>
      <trkpt lat="52.785966" lon="6.890222">
        <ele>0.00000</ele>
        <time>2026-04-23T00:14:59Z</time>
      </trkpt>
      <trkpt lat="52.786087" lon="6.890151">
        <ele>0.00000</ele>
        <time>2026-04-23T00:15:36Z</time>
      </trkpt>
      <trkpt lat="52.786087" lon="6.890151">
        <ele>0.00000</ele>
        <time>2026-04-23T00:15:36Z</time>
      </trkpt>
      <trkpt lat="52.785951" lon="6.889161">
        <ele>0.00000</ele>
        <time>2026-04-23T00:18:31Z</time>
      </trkpt>
      <trkpt lat="52.785766" lon="6.887237">
        <ele>0.00000</ele>
        <time>2026-04-23T00:24:08Z</time>
      </trkpt>
      <trkpt lat="52.785491" lon="6.88545">
        <ele>0.00000</ele>
        <time>2026-04-23T00:29:27Z</time>
      </trkpt>
      <trkpt lat="52.785254" lon="6.881479">
        <ele>0.00000</ele>
        <time>2026-04-23T00:40:57Z</time>
      </trkpt>
      <trkpt lat="52.785219" lon="6.879832">
        <ele>0.00000</ele>
        <time>2026-04-23T00:45:42Z</time>
      </trkpt>
      <trkpt lat="52.785219" lon="6.879832">
        <ele>0.00000</ele>
        <time>2026-04-23T00:45:42Z</time>
      </trkpt>
      <trkpt lat="52.784057" lon="6.879765">
        <ele>0.00000</ele>
        <time>2026-04-23T00:51:15Z</time>
      </trkpt>
      <trkpt lat="52.784057" lon="6.879765">
        <ele>0.00000</ele>
        <time>2026-04-23T00:51:15Z</time>
      </trkpt>
      <trkpt lat="52.783863" lon="6.879794">
        <ele>0.00000</ele>
        <time>2026-04-23T00:52:10Z</time>
      </trkpt>
      <trkpt lat="52.783706" lon="6.879878">
        <ele>0.00000</ele>
        <time>2026-04-23T00:52:57Z</time>
      </trkpt>
      <trkpt lat="52.783247" lon="6.880237">
        <ele>0.00000</ele>
        <time>2026-04-23T00:55:23Z</time>
      </trkpt>
      <trkpt lat="52.783062" lon="6.880337">
        <ele>0.00000</ele>
        <time>2026-04-23T00:56:18Z</time>
      </trkpt>
      <trkpt lat="52.782284" lon="6.880624">
        <ele>0.00000</ele>
        <time>2026-04-23T01:00:06Z</time>
      </trkpt>
    </trkseg>
  </trk>
</gpx>

